sensor_id;sensor_type;location;lat;lon;timestamp;pressure;altitude;pressure_sealevel;temperature;humidity
11605;BME280;5858;43.076;25.626;2023-07-16T00:01:58;99334.09;;;25.70;74.02
11605;BME280;5858;43.076;25.626;2023-07-16T00:04:25;99303.16;;;25.55;74.42
11605;BME280;5858;43.076;25.626;2023-07-16T00:06:52;99329.69;;;25.69;74.82
11605;BME280;5858;43.076;25.626;2023-07-16T00:09:19;99290.09;;;25.36;75.47
11605;BME280;5858;43.076;25.626;2023-07-16T00:11:48;99288.97;;;25.37;75.28
11605;BME280;5858;43.076;25.626;2023-07-16T00:14:15;99357.84;;;25.85;76.14
11605;BME280;5858;43.076;25.626;2023-07-16T00:16:42;99219.00;;;24.96;76.45
11605;BME280;5858;43.076;25.626;2023-07-16T00:19:10;99283.59;;;25.17;76.98
11605;BME280;5858;43.076;25.626;2023-07-16T00:21:38;99363.69;;;25.63;78.53
11605;BME280;5858;43.076;25.626;2023-07-16T00:24:05;99370.28;;;25.57;78.89
11605;BME280;5858;43.076;25.626;2023-07-16T00:26:33;99329.56;;;25.25;79.60
11605;BME280;5858;43.076;25.626;2023-07-16T00:29:01;99368.13;;;25.54;78.47
11605;BME280;5858;43.076;25.626;2023-07-16T00:31:28;99261.72;;;24.97;78.06
11605;BME280;5858;43.076;25.626;2023-07-16T00:33:55;99365.09;;;25.56;78.09
11605;BME280;5858;43.076;25.626;2023-07-16T00:36:25;99363.50;;;25.39;79.92
11605;BME280;5858;43.076;25.626;2023-07-16T00:38:52;99301.44;;;24.99;80.54
11605;BME280;5858;43.076;25.626;2023-07-16T00:41:19;99328.22;;;25.18;80.06
11605;BME280;5858;43.076;25.626;2023-07-16T00:43:46;99341.34;;;25.26;80.16
11605;BME280;5858;43.076;25.626;2023-07-16T00:46:16;99364.94;;;25.22;81.30
11605;BME280;5858;43.076;25.626;2023-07-16T00:48:43;99277.66;;;24.79;80.61
11605;BME280;5858;43.076;25.626;2023-07-16T00:51:10;99335.91;;;25.05;82.22
11605;BME280;5858;43.076;25.626;2023-07-16T00:53:38;99263.94;;;24.85;80.69
11605;BME280;5858;43.076;25.626;2023-07-16T00:56:07;99357.22;;;25.34;80.89
11605;BME280;5858;43.076;25.626;2023-07-16T00:58:34;99317.03;;;24.94;82.35
11605;BME280;5858;43.076;25.626;2023-07-16T01:01:02;99296.53;;;24.81;82.29
11605;BME280;5858;43.076;25.626;2023-07-16T01:03:30;99287.53;;;24.70;83.49
11605;BME280;5858;43.076;25.626;2023-07-16T01:06:02;99183.59;;;24.04;83.36
11605;BME280;5858;43.076;25.626;2023-07-16T01:08:34;99172.69;;;23.99;83.18
11605;BME280;5858;43.076;25.626;2023-07-16T01:11:03;99344.94;;;25.21;82.30
11605;BME280;5858;43.076;25.626;2023-07-16T01:13:30;99306.91;;;24.99;82.23
11605;BME280;5858;43.076;25.626;2023-07-16T01:16:01;99320.31;;;24.96;81.61
11605;BME280;5858;43.076;25.626;2023-07-16T01:18:30;99354.00;;;25.12;83.02
11605;BME280;5858;43.076;25.626;2023-07-16T01:20:57;99278.47;;;24.75;82.38
11605;BME280;5858;43.076;25.626;2023-07-16T01:23:44;99335.34;;;25.24;82.57
11605;BME280;5858;43.076;25.626;2023-07-16T01:26:32;99210.97;;;24.35;82.00
11605;BME280;5858;43.076;25.626;2023-07-16T01:29:30;99331.50;;;25.20;82.53
11605;BME280;5858;43.076;25.626;2023-07-16T01:32:00;99345.78;;;25.06;83.00
11605;BME280;5858;43.076;25.626;2023-07-16T01:34:29;99299.28;;;24.76;84.04
11605;BME280;5858;43.076;25.626;2023-07-16T01:36:56;99317.59;;;24.80;83.71
11605;BME280;5858;43.076;25.626;2023-07-16T01:39:24;99221.63;;;24.26;83.47
11605;BME280;5858;43.076;25.626;2023-07-16T01:41:51;99233.09;;;24.48;82.57
11605;BME280;5858;43.076;25.626;2023-07-16T01:44:18;99257.16;;;24.57;81.69
11605;BME280;5858;43.076;25.626;2023-07-16T01:47:03;99335.38;;;25.14;81.08
11605;BME280;5858;43.076;25.626;2023-07-16T01:49:32;99289.69;;;24.78;81.25
11605;BME280;5858;43.076;25.626;2023-07-16T01:52:03;99282.84;;;24.76;81.65
11605;BME280;5858;43.076;25.626;2023-07-16T01:54:30;99253.63;;;24.46;82.88
11605;BME280;5858;43.076;25.626;2023-07-16T01:56:57;99343.59;;;24.98;83.03
11605;BME280;5858;43.076;25.626;2023-07-16T01:59:24;99288.34;;;24.71;82.71
11605;BME280;5858;43.076;25.626;2023-07-16T02:01:54;99327.16;;;24.98;82.52
11605;BME280;5858;43.076;25.626;2023-07-16T02:04:21;99296.81;;;24.69;82.48
11605;BME280;5858;43.076;25.626;2023-07-16T02:06:48;99329.09;;;24.98;83.09
11605;BME280;5858;43.076;25.626;2023-07-16T02:09:15;99285.06;;;24.64;83.34
11605;BME280;5858;43.076;25.626;2023-07-16T02:11:42;99301.19;;;24.70;83.92
11605;BME280;5858;43.076;25.626;2023-07-16T02:14:09;99321.16;;;24.86;83.11
11605;BME280;5858;43.076;25.626;2023-07-16T02:16:36;99352.34;;;24.90;83.70
11605;BME280;5858;43.076;25.626;2023-07-16T02:19:12;99293.28;;;24.69;83.26
11605;BME280;5858;43.076;25.626;2023-07-16T02:22:01;99136.91;;;23.70;82.79
11605;BME280;5858;43.076;25.626;2023-07-16T02:24:32;99257.72;;;24.38;82.96
11605;BME280;5858;43.076;25.626;2023-07-16T02:27:02;99343.06;;;24.86;82.93
11605;BME280;5858;43.076;25.626;2023-07-16T02:29:31;99285.34;;;24.47;82.47
11605;BME280;5858;43.076;25.626;2023-07-16T02:31:58;99298.47;;;24.40;82.75
11605;BME280;5858;43.076;25.626;2023-07-16T02:34:28;99297.38;;;24.56;83.35
11605;BME280;5858;43.076;25.626;2023-07-16T02:36:59;99340.06;;;24.72;83.90
11605;BME280;5858;43.076;25.626;2023-07-16T02:39:26;99270.00;;;24.10;84.24
11605;BME280;5858;43.076;25.626;2023-07-16T02:42:09;99160.06;;;23.42;85.37
11605;BME280;5858;43.076;25.626;2023-07-16T02:44:58;99321.19;;;24.40;85.88
11605;BME280;5858;43.076;25.626;2023-07-16T02:47:52;99298.22;;;24.31;85.38
11605;BME280;5858;43.076;25.626;2023-07-16T02:50:54;99255.22;;;23.96;85.44
11605;BME280;5858;43.076;25.626;2023-07-16T02:57:05;99273.28;;;24.02;85.94
11605;BME280;5858;43.076;25.626;2023-07-16T02:59:59;99238.00;;;23.96;85.19
11605;BME280;5858;43.076;25.626;2023-07-16T03:02:42;99331.84;;;24.52;85.13
11605;BME280;5858;43.076;25.626;2023-07-16T03:05:10;99334.31;;;24.54;85.59
11605;BME280;5858;43.076;25.626;2023-07-16T03:07:41;99222.97;;;23.88;85.78
11605;BME280;5858;43.076;25.626;2023-07-16T03:10:10;99331.84;;;24.52;86.13
11605;BME280;5858;43.076;25.626;2023-07-16T03:12:41;99284.25;;;24.12;85.97
11605;BME280;5858;43.076;25.626;2023-07-16T03:15:17;99242.94;;;23.89;85.83
11605;BME280;5858;43.076;25.626;2023-07-16T03:17:44;99313.50;;;24.53;85.65
11605;BME280;5858;43.076;25.626;2023-07-16T03:20:12;99232.53;;;24.46;83.05
11605;BME280;5858;43.076;25.626;2023-07-16T03:22:41;99337.75;;;25.35;81.88
11605;BME280;5858;43.076;25.626;2023-07-16T03:25:14;99152.63;;;24.55;79.56
11605;BME280;5858;43.076;25.626;2023-07-16T03:27:42;99352.19;;;26.16;76.68
11605;BME280;5858;43.076;25.626;2023-07-16T03:30:26;99355.53;;;26.47;74.51
11605;BME280;5858;43.076;25.626;2023-07-16T03:49:56;99284.38;;;28.96;59.06
11605;BME280;5858;43.076;25.626;2023-07-16T03:53:18;99370.34;;;29.94;55.10
11605;BME280;5858;43.076;25.626;2023-07-16T03:56:22;99304.75;;;29.91;54.08
11605;BME280;5858;43.076;25.626;2023-07-16T03:59:23;99372.75;;;30.82;52.22
11605;BME280;5858;43.076;25.626;2023-07-16T04:02:58;99377.94;;;31.14;51.32
11605;BME280;5858;43.076;25.626;2023-07-16T04:05:35;99326.53;;;31.05;50.30
11605;BME280;5858;43.076;25.626;2023-07-16T04:11:35;99253.50;;;30.66;49.03
11605;BME280;5858;43.076;25.626;2023-07-16T04:14:06;99355.63;;;31.24;48.32
11605;BME280;5858;43.076;25.626;2023-07-16T04:16:45;99355.94;;;31.00;47.72
11605;BME280;5858;43.076;25.626;2023-07-16T04:19:12;99271.31;;;30.29;48.67
11605;BME280;5858;43.076;25.626;2023-07-16T04:27:19;99255.88;;;29.92;48.88
11605;BME280;5858;43.076;25.626;2023-07-16T04:28:36;99258.84;;;29.95;48.62
11605;BME280;5858;43.076;25.626;2023-07-16T04:34:11;99359.75;;;30.82;48.35
11605;BME280;5858;43.076;25.626;2023-07-16T04:37:02;99251.66;;;30.30;47.77
11605;BME280;5858;43.076;25.626;2023-07-16T04:39:52;99292.16;;;30.88;47.40
11605;BME280;5858;43.076;25.626;2023-07-16T04:42:37;99386.00;;;31.64;46.02
11605;BME280;5858;43.076;25.626;2023-07-16T04:45:14;99400.72;;;31.73;44.74
11605;BME280;5858;43.076;25.626;2023-07-16T04:58:21;99247.38;;;31.83;43.31
11605;BME280;5858;43.076;25.626;2023-07-16T05:00:52;99230.75;;;32.00;43.08
11605;BME280;5858;43.076;25.626;2023-07-16T05:03:22;99257.31;;;32.27;42.13
11605;BME280;5858;43.076;25.626;2023-07-16T05:06:13;99399.22;;;33.48;42.27
11605;BME280;5858;43.076;25.626;2023-07-16T05:08:40;99308.44;;;33.20;41.07
11605;BME280;5858;43.076;25.626;2023-07-16T05:11:07;99373.09;;;33.79;40.35
11605;BME280;5858;43.076;25.626;2023-07-16T05:13:35;99384.56;;;33.77;40.50
11605;BME280;5858;43.076;25.626;2023-07-16T05:16:07;99405.44;;;34.13;40.26
11605;BME280;5858;43.076;25.626;2023-07-16T05:19:55;99400.16;;;34.20;40.17
11605;BME280;5858;43.076;25.626;2023-07-16T05:21:41;99412.09;;;34.41;39.59
11605;BME280;5858;43.076;25.626;2023-07-16T05:24:18;99409.41;;;34.33;40.42
11605;BME280;5858;43.076;25.626;2023-07-16T05:26:59;99334.06;;;33.84;39.86
11605;BME280;5858;43.076;25.626;2023-07-16T05:29:48;99307.97;;;33.47;40.07
11605;BME280;5858;43.076;25.626;2023-07-16T05:32:19;99278.59;;;33.08;40.13
11605;BME280;5858;43.076;25.626;2023-07-16T05:34:46;99328.31;;;33.22;40.81
11605;BME280;5858;43.076;25.626;2023-07-16T05:37:17;99432.66;;;33.61;41.46
11605;BME280;5858;43.076;25.626;2023-07-16T05:39:45;99284.53;;;32.98;42.02
11605;BME280;5858;43.076;25.626;2023-07-16T05:42:12;99405.31;;;34.09;41.94
11605;BME280;5858;43.076;25.626;2023-07-16T05:44:39;99407.34;;;34.63;39.59
11605;BME280;5858;43.076;25.626;2023-07-16T05:47:08;99356.97;;;34.64;39.85
11605;BME280;5858;43.076;25.626;2023-07-16T05:49:35;99349.31;;;34.61;39.36
11605;BME280;5858;43.076;25.626;2023-07-16T05:52:05;99386.59;;;35.26;38.88
11605;BME280;5858;43.076;25.626;2023-07-16T05:54:32;99348.47;;;35.39;37.51
11605;BME280;5858;43.076;25.626;2023-07-16T05:57:00;99423.03;;;35.46;37.22
11605;BME280;5858;43.076;25.626;2023-07-16T05:59:29;99421.69;;;35.64;38.03
11605;BME280;5858;43.076;25.626;2023-07-16T06:02:13;99368.31;;;35.86;38.57
11605;BME280;5858;43.076;25.626;2023-07-16T06:04:57;99287.47;;;35.46;36.88
11605;BME280;5858;43.076;25.626;2023-07-16T06:07:52;99290.72;;;35.48;36.02
11605;BME280;5858;43.076;25.626;2023-07-16T06:13:14;99420.56;;;37.38;35.53
11605;BME280;5858;43.076;25.626;2023-07-16T06:15:41;99389.81;;;37.69;34.82
11605;BME280;5858;43.076;25.626;2023-07-16T06:18:09;99321.75;;;37.42;33.15
11605;BME280;5858;43.076;25.626;2023-07-16T06:20:37;99337.88;;;38.00;33.74
11605;BME280;5858;43.076;25.626;2023-07-16T06:23:04;99412.03;;;38.67;32.61
11605;BME280;5858;43.076;25.626;2023-07-16T06:25:31;99348.06;;;38.27;32.65
11605;BME280;5858;43.076;25.626;2023-07-16T06:28:13;99419.94;;;38.81;32.50
11605;BME280;5858;43.076;25.626;2023-07-16T06:30:44;99427.66;;;38.68;32.54
11605;BME280;5858;43.076;25.626;2023-07-16T06:33:13;99369.41;;;38.55;33.12
11605;BME280;5858;43.076;25.626;2023-07-16T06:35:46;99326.13;;;38.29;32.16
11605;BME280;5858;43.076;25.626;2023-07-16T06:38:27;99433.34;;;39.33;31.02
11605;BME280;5858;43.076;25.626;2023-07-16T06:40:55;99387.81;;;38.36;31.55
11605;BME280;5858;43.076;25.626;2023-07-16T06:43:23;99418.66;;;38.79;32.90
11605;BME280;5858;43.076;25.626;2023-07-16T06:45:56;99274.47;;;38.42;31.99
11605;BME280;5858;43.076;25.626;2023-07-16T06:48:41;99314.22;;;38.94;31.17
11605;BME280;5858;43.076;25.626;2023-07-16T06:51:10;99363.50;;;39.21;31.15
11605;BME280;5858;43.076;25.626;2023-07-16T06:53:37;99260.69;;;38.53;31.71
11605;BME280;5858;43.076;25.626;2023-07-16T06:56:04;99294.91;;;38.66;30.99
11605;BME280;5858;43.076;25.626;2023-07-16T06:58:31;99353.09;;;38.37;31.55
11605;BME280;5858;43.076;25.626;2023-07-16T07:00:59;99314.13;;;37.74;31.49
11605;BME280;5858;43.076;25.626;2023-07-16T07:03:28;99290.41;;;37.02;34.18
11605;BME280;5858;43.076;25.626;2023-07-16T07:05:58;99348.03;;;37.10;34.00
11605;BME280;5858;43.076;25.626;2023-07-16T07:08:30;99286.13;;;36.33;35.54
11605;BME280;5858;43.076;25.626;2023-07-16T07:10:57;99317.13;;;36.03;36.47
11605;BME280;5858;43.076;25.626;2023-07-16T07:13:24;99267.06;;;35.42;35.32
11605;BME280;5858;43.076;25.626;2023-07-16T07:15:51;99310.91;;;35.33;37.06
11605;BME280;5858;43.076;25.626;2023-07-16T07:18:18;99395.47;;;35.53;36.50
11605;BME280;5858;43.076;25.626;2023-07-16T07:20:45;99429.22;;;35.63;38.28
11605;BME280;5858;43.076;25.626;2023-07-16T07:23:13;99352.03;;;35.27;37.76
11605;BME280;5858;43.076;25.626;2023-07-16T07:25:41;99328.38;;;34.76;38.75
11605;BME280;5858;43.076;25.626;2023-07-16T07:28:08;99310.22;;;34.46;38.25
11605;BME280;5858;43.076;25.626;2023-07-16T07:30:35;99362.69;;;34.80;38.67
11605;BME280;5858;43.076;25.626;2023-07-16T07:33:03;99392.66;;;34.95;38.51
11605;BME280;5858;43.076;25.626;2023-07-16T07:35:38;99276.50;;;34.35;37.60
11605;BME280;5858;43.076;25.626;2023-07-16T07:38:08;99336.50;;;35.14;37.91
11605;BME280;5858;43.076;25.626;2023-07-16T07:40:42;99369.06;;;35.26;38.05
11605;BME280;5858;43.076;25.626;2023-07-16T07:43:09;99403.22;;;35.72;37.65
11605;BME280;5858;43.076;25.626;2023-07-16T07:45:36;99408.69;;;35.80;37.10
11605;BME280;5858;43.076;25.626;2023-07-16T07:48:06;99304.72;;;35.03;38.70
11605;BME280;5858;43.076;25.626;2023-07-16T07:50:36;99367.84;;;35.72;38.35
11605;BME280;5858;43.076;25.626;2023-07-16T07:53:05;99269.84;;;35.18;38.62
11605;BME280;5858;43.076;25.626;2023-07-16T07:55:33;99248.97;;;35.12;36.29
11605;BME280;5858;43.076;25.626;2023-07-16T07:58:04;99320.50;;;35.72;39.59
11605;BME280;5858;43.076;25.626;2023-07-16T08:00:31;99316.31;;;35.78;36.49
11605;BME280;5858;43.076;25.626;2023-07-16T08:02:58;99267.31;;;35.49;37.85
11605;BME280;5858;43.076;25.626;2023-07-16T08:05:25;99367.53;;;36.26;37.99
11605;BME280;5858;43.076;25.626;2023-07-16T08:07:52;99303.81;;;35.60;36.55
11605;BME280;5858;43.076;25.626;2023-07-16T08:10:21;99353.09;;;36.08;35.75
11605;BME280;5858;43.076;25.626;2023-07-16T08:12:48;99268.47;;;35.48;37.89
11605;BME280;5858;43.076;25.626;2023-07-16T08:15:17;99288.59;;;35.70;38.56
11605;BME280;5858;43.076;25.626;2023-07-16T08:17:47;99413.38;;;36.53;37.96
11605;BME280;5858;43.076;25.626;2023-07-16T08:20:17;99316.31;;;35.90;37.91
11605;BME280;5858;43.076;25.626;2023-07-16T08:22:45;99270.16;;;35.65;35.86
11605;BME280;5858;43.076;25.626;2023-07-16T08:25:14;99269.59;;;35.47;37.54
11605;BME280;5858;43.076;25.626;2023-07-16T08:31:19;99416.50;;;35.99;36.21
11605;BME280;5858;43.076;25.626;2023-07-16T08:34:15;99265.63;;;34.87;37.28
11605;BME280;5858;43.076;25.626;2023-07-16T08:40:58;99252.09;;;34.53;36.74
11605;BME280;5858;43.076;25.626;2023-07-16T08:43:56;99267.50;;;34.83;38.25
11605;BME280;5858;43.076;25.626;2023-07-16T08:49:36;99268.22;;;35.17;35.78
11605;BME280;5858;43.076;25.626;2023-07-16T08:52:09;99254.16;;;34.89;36.52
11605;BME280;5858;43.076;25.626;2023-07-16T08:54:43;99378.41;;;35.91;37.60
11605;BME280;5858;43.076;25.626;2023-07-16T08:57:12;99373.75;;;36.07;36.61
11605;BME280;5858;43.076;25.626;2023-07-16T08:59:40;99296.81;;;35.90;36.97
11605;BME280;5858;43.076;25.626;2023-07-16T09:02:31;99343.41;;;36.30;36.92
11605;BME280;5858;43.076;25.626;2023-07-16T09:05:10;99303.84;;;36.40;36.63
11605;BME280;5858;43.076;25.626;2023-07-16T09:07:38;99305.41;;;36.25;34.28
11605;BME280;5858;43.076;25.626;2023-07-16T09:10:06;99271.53;;;35.83;35.95
11605;BME280;5858;43.076;25.626;2023-07-16T09:12:33;99298.63;;;36.39;36.91
11605;BME280;5858;43.076;25.626;2023-07-16T09:15:18;99294.13;;;36.62;34.14
11605;BME280;5858;43.076;25.626;2023-07-16T09:18:01;99401.69;;;37.19;33.81
11605;BME280;5858;43.076;25.626;2023-07-16T09:28:12;99318.56;;;36.53;35.65
11605;BME280;5858;43.076;25.626;2023-07-16T09:30:43;99351.78;;;37.02;35.40
11605;BME280;5858;43.076;25.626;2023-07-16T09:33:14;99399.38;;;37.37;34.99
11605;BME280;5858;43.076;25.626;2023-07-16T09:38:53;99230.38;;;36.33;34.57
11605;BME280;5858;43.076;25.626;2023-07-16T09:41:38;99261.19;;;36.52;35.04
11605;BME280;5858;43.076;25.626;2023-07-16T09:44:16;99235.63;;;36.22;35.53
11605;BME280;5858;43.076;25.626;2023-07-16T09:46:49;99287.97;;;36.28;34.22
11605;BME280;5858;43.076;25.626;2023-07-16T09:49:30;99191.69;;;35.35;35.04
11605;BME280;5858;43.076;25.626;2023-07-16T09:55:21;99349.53;;;36.64;35.46
11605;BME280;5858;43.076;25.626;2023-07-16T09:57:53;99376.72;;;36.95;35.48
11605;BME280;5858;43.076;25.626;2023-07-16T10:00:46;99221.50;;;36.15;34.99
11605;BME280;5858;43.076;25.626;2023-07-16T10:06:53;99228.00;;;35.79;34.60
11605;BME280;5858;43.076;25.626;2023-07-16T10:09:54;99372.38;;;36.53;36.73
11605;BME280;5858;43.076;25.626;2023-07-16T10:12:54;99211.13;;;35.47;36.03
11605;BME280;5858;43.076;25.626;2023-07-16T10:16:21;99361.59;;;36.68;36.30
11605;BME280;5858;43.076;25.626;2023-07-16T10:19:07;99216.50;;;35.52;36.26
11605;BME280;5858;43.076;25.626;2023-07-16T10:21:51;99233.34;;;35.96;35.25
11605;BME280;5858;43.076;25.626;2023-07-16T10:24:18;99216.25;;;35.57;36.41
11605;BME280;5858;43.076;25.626;2023-07-16T10:26:51;99344.28;;;36.46;36.13
11605;BME280;5858;43.076;25.626;2023-07-16T10:29:21;99275.69;;;35.89;35.58
11605;BME280;5858;43.076;25.626;2023-07-16T10:32:02;99329.09;;;36.32;36.64
11605;BME280;5858;43.076;25.626;2023-07-16T10:42:30;99349.56;;;37.55;35.38
11605;BME280;5858;43.076;25.626;2023-07-16T10:45:00;99202.81;;;36.43;33.46
11605;BME280;5858;43.076;25.626;2023-07-16T10:47:37;99315.84;;;36.84;34.31
11605;BME280;5858;43.076;25.626;2023-07-16T10:50:09;99186.03;;;35.72;34.48
11605;BME280;5858;43.076;25.626;2023-07-16T10:52:39;99289.13;;;36.27;35.21
11605;BME280;5858;43.076;25.626;2023-07-16T10:55:07;99257.09;;;35.93;35.68
11605;BME280;5858;43.076;25.626;2023-07-16T10:57:35;99335.19;;;36.77;35.06
11605;BME280;5858;43.076;25.626;2023-07-16T11:00:02;99249.88;;;36.76;34.24
11605;BME280;5858;43.076;25.626;2023-07-16T11:02:34;99213.16;;;36.74;32.76
11605;BME280;5858;43.076;25.626;2023-07-16T11:05:13;99331.28;;;37.10;31.88
11605;BME280;5858;43.076;25.626;2023-07-16T11:07:49;99349.56;;;37.07;33.67
11605;BME280;5858;43.076;25.626;2023-07-16T11:10:27;99339.66;;;37.10;32.66
11605;BME280;5858;43.076;25.626;2023-07-16T11:12:56;99174.16;;;35.87;34.09
11605;BME280;5858;43.076;25.626;2023-07-16T11:15:31;99222.38;;;36.31;33.77
11605;BME280;5858;43.076;25.626;2023-07-16T11:18:02;99329.34;;;36.82;33.86
11605;BME280;5858;43.076;25.626;2023-07-16T11:20:53;99180.44;;;35.84;34.10
11605;BME280;5858;43.076;25.626;2023-07-16T11:23:44;99176.91;;;35.99;34.14
11605;BME280;5858;43.076;25.626;2023-07-16T11:26:20;99348.59;;;37.47;34.14
11605;BME280;5858;43.076;25.626;2023-07-16T11:29:07;99179.63;;;36.27;32.46
11605;BME280;5858;43.076;25.626;2023-07-16T11:32:01;99208.81;;;36.30;33.84
11605;BME280;5858;43.076;25.626;2023-07-16T11:34:38;99214.69;;;36.28;34.48
11605;BME280;5858;43.076;25.626;2023-07-16T11:37:09;99293.75;;;36.92;34.90
11605;BME280;5858;43.076;25.626;2023-07-16T11:39:36;99266.34;;;36.81;33.91
11605;BME280;5858;43.076;25.626;2023-07-16T11:42:28;99187.28;;;35.86;34.56
11605;BME280;5858;43.076;25.626;2023-07-16T11:45:25;99262.22;;;36.32;34.94
11605;BME280;5858;43.076;25.626;2023-07-16T11:48:00;99160.13;;;35.83;34.86
11605;BME280;5858;43.076;25.626;2023-07-16T11:50:50;99207.78;;;36.22;34.72
11605;BME280;5858;43.076;25.626;2023-07-16T11:53:25;99184.19;;;36.04;34.34
11605;BME280;5858;43.076;25.626;2023-07-16T11:55:54;99234.91;;;36.09;34.46
11605;BME280;5858;43.076;25.626;2023-07-16T11:58:21;99271.34;;;36.44;34.68
11605;BME280;5858;43.076;25.626;2023-07-16T12:00:49;99259.34;;;36.16;34.50
11605;BME280;5858;43.076;25.626;2023-07-16T12:03:16;99170.75;;;35.65;33.87
11605;BME280;5858;43.076;25.626;2023-07-16T12:05:53;99325.56;;;36.47;33.89
11605;BME280;5858;43.076;25.626;2023-07-16T12:08:26;99326.03;;;36.09;34.79
11605;BME280;5858;43.076;25.626;2023-07-16T12:11:12;99274.03;;;35.48;35.15
11605;BME280;5858;43.076;25.626;2023-07-16T12:13:42;99303.16;;;35.51;35.33
11605;BME280;5858;43.076;25.626;2023-07-16T12:16:12;99158.78;;;34.64;35.42
11605;BME280;5858;43.076;25.626;2023-07-16T12:18:46;99177.31;;;34.60;35.25
11605;BME280;5858;43.076;25.626;2023-07-16T12:21:15;99301.16;;;35.51;36.80
11605;BME280;5858;43.076;25.626;2023-07-16T12:23:43;99230.31;;;35.37;35.98
11605;BME280;5858;43.076;25.626;2023-07-16T12:26:11;99185.00;;;35.12;37.16
11605;BME280;5858;43.076;25.626;2023-07-16T12:28:39;99329.09;;;36.32;34.55
11605;BME280;5858;43.076;25.626;2023-07-16T12:31:08;99315.78;;;36.53;34.25
11605;BME280;5858;43.076;25.626;2023-07-16T12:33:35;99181.22;;;35.44;34.76
11605;BME280;5858;43.076;25.626;2023-07-16T12:36:07;99216.44;;;35.64;34.12
11605;BME280;5858;43.076;25.626;2023-07-16T12:38:36;99327.72;;;36.25;33.21
11605;BME280;5858;43.076;25.626;2023-07-16T12:41:03;99277.75;;;36.05;33.96
11605;BME280;5858;43.076;25.626;2023-07-16T12:43:35;99309.00;;;36.26;34.98
11605;BME280;5858;43.076;25.626;2023-07-16T12:46:06;99253.16;;;36.22;34.93
11605;BME280;5858;43.076;25.626;2023-07-16T12:48:33;99212.50;;;36.06;34.26
11605;BME280;5858;43.076;25.626;2023-07-16T12:51:00;99156.16;;;35.56;33.57
11605;BME280;5858;43.076;25.626;2023-07-16T12:53:28;99314.97;;;36.52;34.28
11605;BME280;5858;43.076;25.626;2023-07-16T12:55:59;99276.59;;;36.34;33.79
11605;BME280;5858;43.076;25.626;2023-07-16T12:58:27;99248.28;;;35.91;34.31
11605;BME280;5858;43.076;25.626;2023-07-16T13:00:56;99228.81;;;35.79;34.57
11605;BME280;5858;43.076;25.626;2023-07-16T13:03:23;99187.34;;;35.62;34.05
11605;BME280;5858;43.076;25.626;2023-07-16T13:05:51;99192.63;;;35.79;33.67
11605;BME280;5858;43.076;25.626;2023-07-16T13:08:18;99193.69;;;35.75;33.35
11605;BME280;5858;43.076;25.626;2023-07-16T13:10:45;99290.63;;;36.37;34.11
11605;BME280;5858;43.076;25.626;2023-07-16T13:13:20;99165.56;;;35.52;34.40
11605;BME280;5858;43.076;25.626;2023-07-16T13:15:47;99165.16;;;35.65;33.02
11605;BME280;5858;43.076;25.626;2023-07-16T13:18:14;99311.84;;;36.70;33.01
11605;BME280;5858;43.076;25.626;2023-07-16T13:20:44;99135.19;;;35.47;33.45
11605;BME280;5858;43.076;25.626;2023-07-16T13:23:17;99284.59;;;36.35;34.01
11605;BME280;5858;43.076;25.626;2023-07-16T13:27:29;99265.06;;;36.47;32.89
11605;BME280;5858;43.076;25.626;2023-07-16T13:29:14;99248.69;;;36.62;33.19
11605;BME280;5858;43.076;25.626;2023-07-16T13:31:50;99152.22;;;35.85;32.94
11605;BME280;5858;43.076;25.626;2023-07-16T13:34:18;99214.56;;;36.09;31.96
11605;BME280;5858;43.076;25.626;2023-07-16T13:36:52;99302.53;;;36.78;33.75
11605;BME280;5858;43.076;25.626;2023-07-16T13:39:19;99175.84;;;36.19;33.46
11605;BME280;5858;43.076;25.626;2023-07-16T13:41:47;99202.19;;;36.50;32.79
11605;BME280;5858;43.076;25.626;2023-07-16T13:44:19;99131.88;;;35.97;31.85
11605;BME280;5858;43.076;25.626;2023-07-16T13:46:46;99138.53;;;35.80;32.45
11605;BME280;5858;43.076;25.626;2023-07-16T13:49:16;99155.44;;;36.15;32.90
11605;BME280;5858;43.076;25.626;2023-07-16T13:51:45;99165.91;;;36.34;32.38
11605;BME280;5858;43.076;25.626;2023-07-16T13:54:25;99103.63;;;35.83;33.66
11605;BME280;5858;43.076;25.626;2023-07-16T13:56:55;99139.25;;;36.05;32.81
11605;BME280;5858;43.076;25.626;2023-07-16T13:59:26;99139.34;;;36.09;32.99
11605;BME280;5858;43.076;25.626;2023-07-16T14:02:00;99186.97;;;36.63;32.44
11605;BME280;5858;43.076;25.626;2023-07-16T14:04:41;99147.41;;;36.57;32.51
11605;BME280;5858;43.076;25.626;2023-07-16T14:07:11;99136.34;;;36.61;31.73
11605;BME280;5858;43.076;25.626;2023-07-16T14:09:39;99171.88;;;36.96;30.83
11605;BME280;5858;43.076;25.626;2023-07-16T14:12:06;99125.03;;;36.54;31.96
11605;BME280;5858;43.076;25.626;2023-07-16T14:14:38;99199.78;;;36.96;31.26
11605;BME280;5858;43.076;25.626;2023-07-16T14:17:05;99220.66;;;37.02;33.37
11605;BME280;5858;43.076;25.626;2023-07-16T14:19:41;99175.75;;;36.91;32.53
11605;BME280;5858;43.076;25.626;2023-07-16T14:22:11;99209.28;;;37.26;31.18
11605;BME280;5858;43.076;25.626;2023-07-16T14:24:41;99100.56;;;36.47;31.49
11605;BME280;5858;43.076;25.626;2023-07-16T14:27:10;99213.16;;;37.06;32.32
11605;BME280;5858;43.076;25.626;2023-07-16T14:29:40;99151.72;;;36.39;31.09
11605;BME280;5858;43.076;25.626;2023-07-16T14:32:07;99261.41;;;37.22;32.66
11605;BME280;5858;43.076;25.626;2023-07-16T14:34:35;99253.06;;;36.91;31.55
11605;BME280;5858;43.076;25.626;2023-07-16T14:37:02;99270.63;;;36.91;32.16
11605;BME280;5858;43.076;25.626;2023-07-16T14:39:38;99134.75;;;35.73;32.90
11605;BME280;5858;43.076;25.626;2023-07-16T14:42:06;99115.28;;;35.32;33.15
11605;BME280;5858;43.076;25.626;2023-07-16T14:44:34;99184.31;;;35.67;33.87
11605;BME280;5858;43.076;25.626;2023-07-16T14:47:03;99162.91;;;35.83;33.93
11605;BME280;5858;43.076;25.626;2023-07-16T14:49:32;99096.69;;;35.49;33.21
11605;BME280;5858;43.076;25.626;2023-07-16T14:52:00;99196.06;;;36.16;32.63
11605;BME280;5858;43.076;25.626;2023-07-16T14:54:28;99107.97;;;35.68;31.99